sensor_id;sensor_type;location;lat;lon;timestamp;temperature;humidity
19000;DHT22;9633;50.980;13.850;2024-03-07T00:01:21;4.20;99.90
19000;DHT22;9633;50.980;13.850;2024-03-07T00:02:54;4.10;99.90
19000;DHT22;9633;50.980;13.850;2024-03-07T00:04:26;4.20;99.90
19000;DHT22;9633;50.980;13.850;2024-03-07T00:06:00;4.30;99.90
19000;DHT22;9633;50.980;13.850;2024-03-07T00:07:32;4.30;99.90
19000;DHT22;9633;50.980;13.850;2024-03-07T00:09:06;4.30;99.90
19000;DHT22;9633;50.980;13.850;2024-03-07T00:10:41;4.30;99.90
19000;DHT22;9633;50.980;13.850;2024-03-07T00:12:16;4.20;99.90
19000;DHT22;9633;50.980;13.850;2024-03-07T00:13:49;4.20;99.90
19000;DHT22;9633;50.980;13.850;2024-03-07T00:15:23;4.20;99.90
19000;DHT22;9633;50.980;13.850;2024-03-07T00:16:56;4.10;99.90
19000;DHT22;9633;50.980;13.850;2024-03-07T00:18:31;4.10;99.90
19000;DHT22;9633;50.980;13.850;2024-03-07T00:20:05;4.10;99.90
19000;DHT22;9633;50.980;13.850;2024-03-07T00:21:41;4.10;99.90
19000;DHT22;9633;50.980;13.850;2024-03-07T00:23:14;4.10;99.90
19000;DHT22;9633;50.980;13.850;2024-03-07T00:24:48;4.00;99.90
19000;DHT22;9633;50.980;13.850;2024-03-07T00:26:20;4.00;99.90
19000;DHT22;9633;50.980;13.850;2024-03-07T00:27:54;4.00;99.90
19000;DHT22;9633;50.980;13.850;2024-03-07T00:29:29;4.10;99.90
19000;DHT22;9633;50.980;13.850;2024-03-07T00:31:02;4.10;99.90
19000;DHT22;9633;50.980;13.850;2024-03-07T00:32:35;4.10;99.90
19000;DHT22;9633;50.980;13.850;2024-03-07T00:34:11;4.10;99.90
19000;DHT22;9633;50.980;13.850;2024-03-07T00:35:54;4.10;99.90
19000;DHT22;9633;50.980;13.850;2024-03-07T00:37:27;4.00;99.90
19000;DHT22;9633;50.980;13.850;2024-03-07T00:39:00;4.00;99.90
19000;DHT22;9633;50.980;13.850;2024-03-07T00:40:32;4.00;99.90
19000;DHT22;9633;50.980;13.850;2024-03-07T00:42:06;4.00;99.90
19000;DHT22;9633;50.980;13.850;2024-03-07T00:43:38;4.00;99.90
19000;DHT22;9633;50.980;13.850;2024-03-07T00:45:12;4.10;99.90
19000;DHT22;9633;50.980;13.850;2024-03-07T00:46:47;4.10;99.90
19000;DHT22;9633;50.980;13.850;2024-03-07T00:48:19;4.10;99.90
19000;DHT22;9633;50.980;13.850;2024-03-07T00:49:52;4.10;99.90
19000;DHT22;9633;50.980;13.850;2024-03-07T00:51:25;4.10;99.90
19000;DHT22;9633;50.980;13.850;2024-03-07T00:52:58;4.10;99.90
19000;DHT22;9633;50.980;13.850;2024-03-07T00:54:31;4.20;99.90
19000;DHT22;9633;50.980;13.850;2024-03-07T00:56:04;4.20;99.90
19000;DHT22;9633;50.980;13.850;2024-03-07T00:57:37;4.30;99.90
19000;DHT22;9633;50.980;13.850;2024-03-07T00:59:10;4.30;99.90
19000;DHT22;9633;50.980;13.850;2024-03-07T01:00:43;4.30;99.90
19000;DHT22;9633;50.980;13.850;2024-03-07T01:02:17;4.30;99.90
19000;DHT22;9633;50.980;13.850;2024-03-07T01:03:49;4.20;99.90
19000;DHT22;9633;50.980;13.850;2024-03-07T01:05:23;4.20;99.90
19000;DHT22;9633;50.980;13.850;2024-03-07T01:06:56;4.20;99.90
19000;DHT22;9633;50.980;13.850;2024-03-07T01:08:28;4.20;99.90
19000;DHT22;9633;50.980;13.850;2024-03-07T01:10:05;4.30;99.90
19000;DHT22;9633;50.980;13.850;2024-03-07T01:11:38;4.30;99.90
19000;DHT22;9633;50.980;13.850;2024-03-07T01:13:11;4.30;99.90
19000;DHT22;9633;50.980;13.850;2024-03-07T01:14:50;4.30;99.90
19000;DHT22;9633;50.980;13.850;2024-03-07T01:16:23;4.30;99.90
19000;DHT22;9633;50.980;13.850;2024-03-07T01:17:58;4.20;99.90
19000;DHT22;9633;50.980;13.850;2024-03-07T01:19:32;4.30;99.90
19000;DHT22;9633;50.980;13.850;2024-03-07T01:21:05;4.30;99.90
19000;DHT22;9633;50.980;13.850;2024-03-07T01:22:40;4.30;99.90
19000;DHT22;9633;50.980;13.850;2024-03-07T01:24:12;4.30;99.90
19000;DHT22;9633;50.980;13.850;2024-03-07T01:25:49;4.20;99.90
19000;DHT22;9633;50.980;13.850;2024-03-07T01:27:23;4.20;99.90
19000;DHT22;9633;50.980;13.850;2024-03-07T01:28:56;4.20;99.90
19000;DHT22;9633;50.980;13.850;2024-03-07T01:30:30;4.20;99.90
19000;DHT22;9633;50.980;13.850;2024-03-07T01:32:02;4.30;99.90
19000;DHT22;9633;50.980;13.850;2024-03-07T01:33:37;4.30;99.90
19000;DHT22;9633;50.980;13.850;2024-03-07T01:35:09;4.40;99.90
19000;DHT22;9633;50.980;13.850;2024-03-07T01:36:42;4.40;99.90
19000;DHT22;9633;50.980;13.850;2024-03-07T01:38:15;4.40;99.90
19000;DHT22;9633;50.980;13.850;2024-03-07T01:39:48;4.50;99.90
19000;DHT22;9633;50.980;13.850;2024-03-07T01:41:20;4.50;99.90
19000;DHT22;9633;50.980;13.850;2024-03-07T01:42:54;4.40;99.90
19000;DHT22;9633;50.980;13.850;2024-03-07T01:44:28;4.40;99.90
19000;DHT22;9633;50.980;13.850;2024-03-07T01:46:03;4.50;99.90
19000;DHT22;9633;50.980;13.850;2024-03-07T01:47:37;4.50;99.90
19000;DHT22;9633;50.980;13.850;2024-03-07T01:49:11;4.50;99.90
19000;DHT22;9633;50.980;13.850;2024-03-07T01:50:44;4.60;99.90
19000;DHT22;9633;50.980;13.850;2024-03-07T01:52:17;4.60;99.90
19000;DHT22;9633;50.980;13.850;2024-03-07T01:53:50;4.60;99.90
19000;DHT22;9633;50.980;13.850;2024-03-07T01:55:24;4.60;99.90
19000;DHT22;9633;50.980;13.850;2024-03-07T01:56:57;4.50;99.90
19000;DHT22;9633;50.980;13.850;2024-03-07T01:58:31;4.50;99.90
19000;DHT22;9633;50.980;13.850;2024-03-07T02:00:04;4.50;99.90
19000;DHT22;9633;50.980;13.850;2024-03-07T02:01:39;4.50;99.90
19000;DHT22;9633;50.980;13.850;2024-03-07T02:03:12;4.40;99.90
19000;DHT22;9633;50.980;13.850;2024-03-07T02:04:47;4.40;99.90
19000;DHT22;9633;50.980;13.850;2024-03-07T02:06:19;4.40;99.90
19000;DHT22;9633;50.980;13.850;2024-03-07T02:07:52;4.40;99.90
19000;DHT22;9633;50.980;13.850;2024-03-07T02:09:25;4.40;99.90
19000;DHT22;9633;50.980;13.850;2024-03-07T02:10:57;4.40;99.90
19000;DHT22;9633;50.980;13.850;2024-03-07T02:12:31;4.40;99.90
19000;DHT22;9633;50.980;13.850;2024-03-07T02:14:03;4.40;99.90
19000;DHT22;9633;50.980;13.850;2024-03-07T02:15:36;4.40;99.90
19000;DHT22;9633;50.980;13.850;2024-03-07T02:17:08;4.40;99.90
19000;DHT22;9633;50.980;13.850;2024-03-07T02:18:41;4.40;99.90
19000;DHT22;9633;50.980;13.850;2024-03-07T02:20:15;4.40;99.90
19000;DHT22;9633;50.980;13.850;2024-03-07T02:21:50;4.40;99.90
19000;DHT22;9633;50.980;13.850;2024-03-07T02:23:22;4.50;99.90
19000;DHT22;9633;50.980;13.850;2024-03-07T02:24:55;4.50;99.90
19000;DHT22;9633;50.980;13.850;2024-03-07T02:26:27;4.50;99.90
19000;DHT22;9633;50.980;13.850;2024-03-07T02:28:01;4.50;99.90
19000;DHT22;9633;50.980;13.850;2024-03-07T02:29:35;4.60;99.90
19000;DHT22;9633;50.980;13.850;2024-03-07T02:31:09;4.50;99.90
19000;DHT22;9633;50.980;13.850;2024-03-07T02:32:41;4.50;99.90
19000;DHT22;9633;50.980;13.850;2024-03-07T02:34:14;4.50;99.90
19000;DHT22;9633;50.980;13.850;2024-03-07T02:35:46;4.40;99.90
19000;DHT22;9633;50.980;13.850;2024-03-07T02:37:22;4.40;99.90
19000;DHT22;9633;50.980;13.850;2024-03-07T02:38:54;4.40;99.90
19000;DHT22;9633;50.980;13.850;2024-03-07T02:40:28;4.50;99.90
19000;DHT22;9633;50.980;13.850;2024-03-07T02:42:00;4.40;99.90
19000;DHT22;9633;50.980;13.850;2024-03-07T02:43:34;4.50;99.90
19000;DHT22;9633;50.980;13.850;2024-03-07T02:45:10;4.50;99.90
19000;DHT22;9633;50.980;13.850;2024-03-07T02:46:47;4.40;99.90
19000;DHT22;9633;50.980;13.850;2024-03-07T02:48:20;4.50;99.90
19000;DHT22;9633;50.980;13.850;2024-03-07T02:49:52;4.50;99.90
19000;DHT22;9633;50.980;13.850;2024-03-07T02:51:26;4.50;99.90
19000;DHT22;9633;50.980;13.850;2024-03-07T02:52:59;4.60;99.90
19000;DHT22;9633;50.980;13.850;2024-03-07T02:54:32;4.50;99.90
19000;DHT22;9633;50.980;13.850;2024-03-07T02:56:05;4.50;99.90
19000;DHT22;9633;50.980;13.850;2024-03-07T02:57:39;4.50;99.90
19000;DHT22;9633;50.980;13.850;2024-03-07T02:59:12;4.60;99.90
19000;DHT22;9633;50.980;13.850;2024-03-07T03:00:46;4.50;99.90
19000;DHT22;9633;50.980;13.850;2024-03-07T03:02:21;4.50;99.90
19000;DHT22;9633;50.980;13.850;2024-03-07T03:03:54;4.50;99.90
19000;DHT22;9633;50.980;13.850;2024-03-07T03:05:26;4.50;99.90
19000;DHT22;9633;50.980;13.850;2024-03-07T03:07:00;4.50;99.90
19000;DHT22;9633;50.980;13.850;2024-03-07T03:08:34;4.60;99.90
19000;DHT22;9633;50.980;13.850;2024-03-07T03:10:08;4.60;99.90
19000;DHT22;9633;50.980;13.850;2024-03-07T03:11:42;4.60;99.90
19000;DHT22;9633;50.980;13.850;2024-03-07T03:13:15;4.60;99.90
19000;DHT22;9633;50.980;13.850;2024-03-07T03:14:47;4.60;99.90
19000;DHT22;9633;50.980;13.850;2024-03-07T03:16:20;4.60;99.90
19000;DHT22;9633;50.980;13.850;2024-03-07T03:18:13;4.60;99.90
19000;DHT22;9633;50.980;13.850;2024-03-07T03:19:46;4.60;99.90
19000;DHT22;9633;50.980;13.850;2024-03-07T03:21:21;4.50;99.90
19000;DHT22;9633;50.980;13.850;2024-03-07T03:22:55;4.50;99.90
19000;DHT22;9633;50.980;13.850;2024-03-07T03:24:31;4.40;99.90
19000;DHT22;9633;50.980;13.850;2024-03-07T03:26:04;4.50;99.90
19000;DHT22;9633;50.980;13.850;2024-03-07T03:27:37;4.50;99.90
19000;DHT22;9633;50.980;13.850;2024-03-07T03:29:10;4.50;99.90
19000;DHT22;9633;50.980;13.850;2024-03-07T03:30:44;4.50;99.90
19000;DHT22;9633;50.980;13.850;2024-03-07T03:32:17;4.50;99.90
19000;DHT22;9633;50.980;13.850;2024-03-07T03:33:49;4.50;99.90
19000;DHT22;9633;50.980;13.850;2024-03-07T03:35:24;4.50;99.90
19000;DHT22;9633;50.980;13.850;2024-03-07T03:36:56;4.50;99.90
19000;DHT22;9633;50.980;13.850;2024-03-07T03:38:29;4.40;99.90
19000;DHT22;9633;50.980;13.850;2024-03-07T03:40:03;4.40;99.90
19000;DHT22;9633;50.980;13.850;2024-03-07T03:41:37;4.40;99.90
19000;DHT22;9633;50.980;13.850;2024-03-07T03:43:09;4.40;99.90
19000;DHT22;9633;50.980;13.850;2024-03-07T03:44:42;4.50;99.90
19000;DHT22;9633;50.980;13.850;2024-03-07T03:46:14;4.40;99.90
19000;DHT22;9633;50.980;13.850;2024-03-07T03:47:47;4.50;99.90
19000;DHT22;9633;50.980;13.850;2024-03-07T03:49:20;4.40;99.90
19000;DHT22;9633;50.980;13.850;2024-03-07T03:50:53;4.30;99.90
19000;DHT22;9633;50.980;13.850;2024-03-07T03:52:26;4.30;99.90
19000;DHT22;9633;50.980;13.850;2024-03-07T03:54:00;4.30;99.90
19000;DHT22;9633;50.980;13.850;2024-03-07T03:55:34;4.40;99.90
19000;DHT22;9633;50.980;13.850;2024-03-07T03:57:10;4.40;99.90
19000;DHT22;9633;50.980;13.850;2024-03-07T03:58:42;4.50;99.90
19000;DHT22;9633;50.980;13.850;2024-03-07T04:00:16;4.50;99.90
19000;DHT22;9633;50.980;13.850;2024-03-07T04:01:48;4.50;99.90
19000;DHT22;9633;50.980;13.850;2024-03-07T04:03:21;4.50;99.90
19000;DHT22;9633;50.980;13.850;2024-03-07T04:04:54;4.40;99.90
19000;DHT22;9633;50.980;13.850;2024-03-07T04:06:26;4.50;99.90
19000;DHT22;9633;50.980;13.850;2024-03-07T04:08:00;4.50;99.90
19000;DHT22;9633;50.980;13.850;2024-03-07T04:09:32;4.50;99.90
19000;DHT22;9633;50.980;13.850;2024-03-07T04:11:07;4.50;99.90
19000;DHT22;9633;50.980;13.850;2024-03-07T04:12:42;4.50;99.90
19000;DHT22;9633;50.980;13.850;2024-03-07T04:14:14;4.50;99.90
19000;DHT22;9633;50.980;13.850;2024-03-07T04:15:48;4.50;99.90
19000;DHT22;9633;50.980;13.850;2024-03-07T04:17:20;4.50;99.90
19000;DHT22;9633;50.980;13.850;2024-03-07T04:18:53;4.50;99.90
19000;DHT22;9633;50.980;13.850;2024-03-07T04:20:26;4.60;99.90
19000;DHT22;9633;50.980;13.850;2024-03-07T04:21:59;4.60;99.90
19000;DHT22;9633;50.980;13.850;2024-03-07T04:23:31;4.50;99.90
19000;DHT22;9633;50.980;13.850;2024-03-07T04:25:06;4.50;99.90
19000;DHT22;9633;50.980;13.850;2024-03-07T04:26:40;4.40;99.90
19000;DHT22;9633;50.980;13.850;2024-03-07T04:28:13;4.40;99.90
19000;DHT22;9633;50.980;13.850;2024-03-07T04:29:47;4.30;99.90
19000;DHT22;9633;50.980;13.850;2024-03-07T04:31:19;4.20;99.90
19000;DHT22;9633;50.980;13.850;2024-03-07T04:32:52;4.10;99.90
19000;DHT22;9633;50.980;13.850;2024-03-07T04:34:25;4.10;99.90
19000;DHT22;9633;50.980;13.850;2024-03-07T04:35:58;4.00;99.90
19000;DHT22;9633;50.980;13.850;2024-03-07T04:37:33;3.90;99.90
19000;DHT22;9633;50.980;13.850;2024-03-07T04:39:08;3.80;99.90
19000;DHT22;9633;50.980;13.850;2024-03-07T04:40:47;3.70;99.90
19000;DHT22;9633;50.980;13.850;2024-03-07T04:42:21;3.70;99.90
19000;DHT22;9633;50.980;13.850;2024-03-07T04:43:53;3.60;99.90
19000;DHT22;9633;50.980;13.850;2024-03-07T04:45:27;3.50;99.90
19000;DHT22;9633;50.980;13.850;2024-03-07T04:47:00;3.40;99.90
19000;DHT22;9633;50.980;13.850;2024-03-07T04:48:33;3.30;99.90
19000;DHT22;9633;50.980;13.850;2024-03-07T04:50:06;3.30;99.90
19000;DHT22;9633;50.980;13.850;2024-03-07T04:51:39;3.20;99.90
19000;DHT22;9633;50.980;13.850;2024-03-07T04:53:13;3.20;99.90
19000;DHT22;9633;50.980;13.850;2024-03-07T04:54:46;3.20;99.90
19000;DHT22;9633;50.980;13.850;2024-03-07T04:56:19;3.30;99.90
19000;DHT22;9633;50.980;13.850;2024-03-07T04:57:53;3.40;99.90
19000;DHT22;9633;50.980;13.850;2024-03-07T04:59:26;3.50;99.90
19000;DHT22;9633;50.980;13.850;2024-03-07T05:00:58;3.60;99.90
19000;DHT22;9633;50.980;13.850;2024-03-07T05:02:32;3.60;99.90
19000;DHT22;9633;50.980;13.850;2024-03-07T05:04:04;3.60;99.90
19000;DHT22;9633;50.980;13.850;2024-03-07T05:05:37;3.60;99.90
19000;DHT22;9633;50.980;13.850;2024-03-07T05:07:12;3.60;99.90
19000;DHT22;9633;50.980;13.850;2024-03-07T05:08:45;3.60;99.90
19000;DHT22;9633;50.980;13.850;2024-03-07T05:10:20;3.70;99.90
19000;DHT22;9633;50.980;13.850;2024-03-07T05:11:52;3.60;99.90
19000;DHT22;9633;50.980;13.850;2024-03-07T05:13:28;3.60;99.90
19000;DHT22;9633;50.980;13.850;2024-03-07T05:15:00;3.60;99.90
19000;DHT22;9633;50.980;13.850;2024-03-07T05:16:35;3.50;99.90
19000;DHT22;9633;50.980;13.850;2024-03-07T05:18:07;3.50;99.90
19000;DHT22;9633;50.980;13.850;2024-03-07T05:19:41;3.50;99.90
19000;DHT22;9633;50.980;13.850;2024-03-07T05:21:13;3.40;99.90
19000;DHT22;9633;50.980;13.850;2024-03-07T05:23:04;3.40;99.90
19000;DHT22;9633;50.980;13.850;2024-03-07T05:24:37;3.30;99.90
19000;DHT22;9633;50.980;13.850;2024-03-07T05:26:09;3.30;99.90
19000;DHT22;9633;50.980;13.850;2024-03-07T05:27:42;3.30;99.90
19000;DHT22;9633;50.980;13.850;2024-03-07T05:29:17;3.20;99.90
19000;DHT22;9633;50.980;13.850;2024-03-07T05:30:51;3.20;99.90
19000;DHT22;9633;50.980;13.850;2024-03-07T05:32:25;3.10;99.90
19000;DHT22;9633;50.980;13.850;2024-03-07T05:33:57;3.10;99.90
19000;DHT22;9633;50.980;13.850;2024-03-07T05:35:31;3.00;99.90
19000;DHT22;9633;50.980;13.850;2024-03-07T05:37:04;3.00;99.90
19000;DHT22;9633;50.980;13.850;2024-03-07T05:38:36;3.00;99.90
19000;DHT22;9633;50.980;13.850;2024-03-07T05:40:10;3.00;99.90
19000;DHT22;9633;50.980;13.850;2024-03-07T05:41:44;2.90;99.90
19000;DHT22;9633;50.980;13.850;2024-03-07T05:43:17;2.90;99.90
19000;DHT22;9633;50.980;13.850;2024-03-07T05:44:52;2.90;99.90
19000;DHT22;9633;50.980;13.850;2024-03-07T05:46:26;2.90;99.90
19000;DHT22;9633;50.980;13.850;2024-03-07T05:48:14;2.80;99.90
19000;DHT22;9633;50.980;13.850;2024-03-07T05:49:48;2.80;99.90
19000;DHT22;9633;50.980;13.850;2024-03-07T05:51:20;2.70;99.90
19000;DHT22;9633;50.980;13.850;2024-03-07T05:52:53;2.70;99.90
19000;DHT22;9633;50.980;13.850;2024-03-07T05:54:26;2.70;99.90
19000;DHT22;9633;50.980;13.850;2024-03-07T05:56:01;2.60;99.90
19000;DHT22;9633;50.980;13.850;2024-03-07T05:57:35;2.60;99.90
19000;DHT22;9633;50.980;13.850;2024-03-07T05:59:11;2.60;99.90
19000;DHT22;9633;50.980;13.850;2024-03-07T06:00:46;2.60;99.90
19000;DHT22;9633;50.980;13.850;2024-03-07T06:02:21;2.60;99.90
19000;DHT22;9633;50.980;13.850;2024-03-07T06:03:54;2.60;99.90
19000;DHT22;9633;50.980;13.850;2024-03-07T06:05:28;2.60;99.90
19000;DHT22;9633;50.980;13.850;2024-03-07T06:07:01;2.50;99.90
19000;DHT22;9633;50.980;13.850;2024-03-07T06:08:33;2.50;99.90
19000;DHT22;9633;50.980;13.850;2024-03-07T06:10:07;2.50;99.90
19000;DHT22;9633;50.980;13.850;2024-03-07T06:11:43;2.50;99.90
19000;DHT22;9633;50.980;13.850;2024-03-07T06:13:16;2.50;99.90
19000;DHT22;9633;50.980;13.850;2024-03-07T06:14:49;2.50;99.90
19000;DHT22;9633;50.980;13.850;2024-03-07T06:16:24;2.50;99.90
19000;DHT22;9633;50.980;13.850;2024-03-07T06:17:56;2.50;99.90
19000;DHT22;9633;50.980;13.850;2024-03-07T06:19:29;2.50;99.90
19000;DHT22;9633;50.980;13.850;2024-03-07T06:21:03;2.50;99.90
19000;DHT22;9633;50.980;13.850;2024-03-07T06:22:38;2.50;99.90
19000;DHT22;9633;50.980;13.850;2024-03-07T06:24:10;2.60;99.90
19000;DHT22;9633;50.980;13.850;2024-03-07T06:25:47;2.70;99.90
19000;DHT22;9633;50.980;13.850;2024-03-07T06:27:20;2.80;99.90
19000;DHT22;9633;50.980;13.850;2024-03-07T06:29:09;3.00;99.90
19000;DHT22;9633;50.980;13.850;2024-03-07T06:30:44;3.30;99.90
19000;DHT22;9633;50.980;13.850;2024-03-07T06:32:20;3.70;99.90
19000;DHT22;9633;50.980;13.850;2024-03-07T06:33:53;4.30;99.90
19000;DHT22;9633;50.980;13.850;2024-03-07T06:35:26;4.70;99.90
19000;DHT22;9633;50.980;13.850;2024-03-07T06:36:58;5.20;99.90
19000;DHT22;9633;50.980;13.850;2024-03-07T06:38:32;5.50;93.80
19000;DHT22;9633;50.980;13.850;2024-03-07T06:40:06;5.60;60.30
19000;DHT22;9633;50.980;13.850;2024-03-07T06:41:41;5.40;56.70
19000;DHT22;9633;50.980;13.850;2024-03-07T06:43:17;5.50;73.10
19000;DHT22;9633;50.980;13.850;2024-03-07T06:44:49;5.30;71.60
19000;DHT22;9633;50.980;13.850;2024-03-07T06:46:22;5.10;88.00
19000;DHT22;9633;50.980;13.850;2024-03-07T06:47:57;4.90;85.90
19000;DHT22;9633;50.980;13.850;2024-03-07T06:49:30;4.80;95.80
19000;DHT22;9633;50.980;13.850;2024-03-07T06:51:03;5.10;99.90
19000;DHT22;9633;50.980;13.850;2024-03-07T06:52:37;5.40;99.90
19000;DHT22;9633;50.980;13.850;2024-03-07T06:54:10;6.00;99.90
19000;DHT22;9633;50.980;13.850;2024-03-07T06:55:42;6.40;58.00
19000;DHT22;9633;50.980;13.850;2024-03-07T06:57:17;7.10;39.10
19000;DHT22;9633;50.980;13.850;2024-03-07T06:58:50;7.60;9.30
19000;DHT22;9633;50.980;13.850;2024-03-07T07:00:23;7.50;2.20
19000;DHT22;9633;50.980;13.850;2024-03-07T07:01:55;7.90;7.80
19000;DHT22;9633;50.980;13.850;2024-03-07T07:03:32;7.50;1.00
19000;DHT22;9633;50.980;13.850;2024-03-07T07:05:06;8.00;1.00
19000;DHT22;9633;50.980;13.850;2024-03-07T07:06:42;8.20;1.00
19000;DHT22;9633;50.980;13.850;2024-03-07T07:08:16;8.20;1.00
19000;DHT22;9633;50.980;13.850;2024-03-07T07:09:49;8.10;1.00
19000;DHT22;9633;50.980;13.850;2024-03-07T07:11:25;8.00;1.00
19000;DHT22;9633;50.980;13.850;2024-03-07T07:13:04;7.70;1.00
19000;DHT22;9633;50.980;13.850;2024-03-07T07:14:37;7.70;1.00
19000;DHT22;9633;50.980;13.850;2024-03-07T07:16:11;7.30;1.00
19000;DHT22;9633;50.980;13.850;2024-03-07T07:17:45;6.80;1.00
19000;DHT22;9633;50.980;13.850;2024-03-07T07:19:20;6.30;1.00
19000;DHT22;9633;50.980;13.850;2024-03-07T07:20:53;5.70;1.00
19000;DHT22;9633;50.980;13.850;2024-03-07T07:22:25;5.20;10.80
19000;DHT22;9633;50.980;13.850;2024-03-07T07:23:59;5.10;24.30
19000;DHT22;9633;50.980;13.850;2024-03-07T07:25:32;4.90;28.80
19000;DHT22;9633;50.980;13.850;2024-03-07T07:27:05;4.70;40.40
19000;DHT22;9633;50.980;13.850;2024-03-07T07:28:39;4.60;51.80
19000;DHT22;9633;50.980;13.850;2024-03-07T07:30:14;4.60;68.30
19000;DHT22;9633;50.980;13.850;2024-03-07T07:31:47;4.60;52.50
19000;DHT22;9633;50.980;13.850;2024-03-07T07:33:20;4.60;44.20
19000;DHT22;9633;50.980;13.850;2024-03-07T07:34:54;4.60;47.70
19000;DHT22;9633;50.980;13.850;2024-03-07T07:36:27;4.60;46.50
19000;DHT22;9633;50.980;13.850;2024-03-07T07:38:02;4.60;53.70
19000;DHT22;9633;50.980;13.850;2024-03-07T07:39:34;4.60;41.80
19000;DHT22;9633;50.980;13.850;2024-03-07T07:41:08;4.60;52.40
19000;DHT22;9633;50.980;13.850;2024-03-07T07:42:42;4.70;59.00
19000;DHT22;9633;50.980;13.850;2024-03-07T07:44:15;4.70;48.10
19000;DHT22;9633;50.980;13.850;2024-03-07T07:45:49;4.80;42.90
19000;DHT22;9633;50.980;13.850;2024-03-07T07:47:21;4.90;38.80
19000;DHT22;9633;50.980;13.850;2024-03-07T07:48:54;5.10;23.40
19000;DHT22;9633;50.980;13.850;2024-03-07T07:50:29;5.20;18.20
19000;DHT22;9633;50.980;13.850;2024-03-07T07:52:01;5.30;25.00
19000;DHT22;9633;50.980;13.850;2024-03-07T07:53:34;5.50;16.50
19000;DHT22;9633;50.980;13.850;2024-03-07T07:55:08;5.80;9.80
19000;DHT22;9633;50.980;13.850;2024-03-07T07:56:46;5.90;1.00
19000;DHT22;9633;50.980;13.850;2024-03-07T07:58:19;6.20;1.00
19000;DHT22;9633;50.980;13.850;2024-03-07T07:59:52;6.20;1.00
19000;DHT22;9633;50.980;13.850;2024-03-07T08:01:25;6.60;1.00
19000;DHT22;9633;50.980;13.850;2024-03-07T08:02:58;7.20;1.00
19000;DHT22;9633;50.980;13.850;2024-03-07T08:04:32;7.80;1.00
19000;DHT22;9633;50.980;13.850;2024-03-07T08:06:05;8.10;1.00
19000;DHT22;9633;50.980;13.850;2024-03-07T08:07:39;8.50;1.00
19000;DHT22;9633;50.980;13.850;2024-03-07T08:09:11;9.00;1.00
19000;DHT22;9633;50.980;13.850;2024-03-07T08:10:48;8.90;1.00
19000;DHT22;9633;50.980;13.850;2024-03-07T08:12:21;8.80;1.00
19000;DHT22;9633;50.980;13.850;2024-03-07T08:13:54;8.70;1.00
19000;DHT22;9633;50.980;13.850;2024-03-07T08:15:28;8.80;1.00
19000;DHT22;9633;50.980;13.850;2024-03-07T08:17:01;9.20;1.00
19000;DHT22;9633;50.980;13.850;2024-03-07T08:18:34;9.40;1.00
19000;DHT22;9633;50.980;13.850;2024-03-07T08:20:06;9.40;1.00
19000;DHT22;9633;50.980;13.850;2024-03-07T08:21:44;9.40;1.00
19000;DHT22;9633;50.980;13.850;2024-03-07T08:23:17;9.20;1.00
19000;DHT22;9633;50.980;13.850;2024-03-07T08:24:50;9.60;1.00
19000;DHT22;9633;50.980;13.850;2024-03-07T08:26:22;9.50;1.00
19000;DHT22;9633;50.980;13.850;2024-03-07T08:27:56;9.00;1.00
19000;DHT22;9633;50.980;13.850;2024-03-07T08:29:30;9.10;1.00
19000;DHT22;9633;50.980;13.850;2024-03-07T08:31:03;8.80;1.00
19000;DHT22;9633;50.980;13.850;2024-03-07T08:32:36;7.50;1.00
19000;DHT22;9633;50.980;13.850;2024-03-07T08:34:09;7.40;1.00
19000;DHT22;9633;50.980;13.850;2024-03-07T08:35:42;7.50;1.00
19000;DHT22;9633;50.980;13.850;2024-03-07T08:37:16;7.60;1.00
19000;DHT22;9633;50.980;13.850;2024-03-07T08:38:49;7.30;1.00
19000;DHT22;9633;50.980;13.850;2024-03-07T08:40:25;6.70;1.00
19000;DHT22;9633;50.980;13.850;2024-03-07T08:42:03;6.90;1.00
19000;DHT22;9633;50.980;13.850;2024-03-07T08:43:35;6.90;1.00
19000;DHT22;9633;50.980;13.850;2024-03-07T08:45:09;6.90;1.00
19000;DHT22;9633;50.980;13.850;2024-03-07T08:46:42;6.80;1.00
19000;DHT22;9633;50.980;13.850;2024-03-07T08:48:15;6.40;1.00
19000;DHT22;9633;50.980;13.850;2024-03-07T08:49:49;6.40;1.00
19000;DHT22;9633;50.980;13.850;2024-03-07T08:51:21;6.30;1.00
19000;DHT22;9633;50.980;13.850;2024-03-07T08:52:56;6.30;1.00
19000;DHT22;9633;50.980;13.850;2024-03-07T08:54:28;6.20;1.00
19000;DHT22;9633;50.980;13.850;2024-03-07T08:56:01;6.20;1.00
19000;DHT22;9633;50.980;13.850;2024-03-07T08:57:34;6.30;1.00
19000;DHT22;9633;50.980;13.850;2024-03-07T08:59:08;6.20;1.00
19000;DHT22;9633;50.980;13.850;2024-03-07T09:00:40;6.20;1.00
19000;DHT22;9633;50.980;13.850;2024-03-07T09:02:13;6.20;1.00
19000;DHT22;9633;50.980;13.850;2024-03-07T09:03:45;6.30;1.00
19000;DHT22;9633;50.980;13.850;2024-03-07T09:05:19;6.40;1.00
19000;DHT22;9633;50.980;13.850;2024-03-07T09:06:52;6.30;1.00
19000;DHT22;9633;50.980;13.850;2024-03-07T09:08:26;6.30;1.00
19000;DHT22;9633;50.980;13.850;2024-03-07T09:10:02;6.30;1.00
19000;DHT22;9633;50.980;13.850;2024-03-07T09:11:36;6.40;1.00
19000;DHT22;9633;50.980;13.850;2024-03-07T09:13:09;6.50;1.00
19000;DHT22;9633;50.980;13.850;2024-03-07T09:14:42;6.70;1.00
19000;DHT22;9633;50.980;13.850;2024-03-07T09:16:18;6.90;1.00
19000;DHT22;9633;50.980;13.850;2024-03-07T09:17:52;6.80;1.00
19000;DHT22;9633;50.980;13.850;2024-03-07T09:19:25;7.00;1.00
19000;DHT22;9633;50.980;13.850;2024-03-07T09:20:59;7.00;1.00
19000;DHT22;9633;50.980;13.850;2024-03-07T09:22:32;7.20;1.00
19000;DHT22;9633;50.980;13.850;2024-03-07T09:24:07;7.10;1.00
19000;DHT22;9633;50.980;13.850;2024-03-07T09:25:39;6.90;1.00
19000;DHT22;9633;50.980;13.850;2024-03-07T09:27:12;6.90;1.00
19000;DHT22;9633;50.980;13.850;2024-03-07T09:28:46;6.70;1.00
19000;DHT22;9633;50.980;13.850;2024-03-07T09:30:20;6.40;1.00
19000;DHT22;9633;50.980;13.850;2024-03-07T09:31:57;6.50;1.00
19000;DHT22;9633;50.980;13.850;2024-03-07T09:33:29;6.60;1.00
19000;DHT22;9633;50.980;13.850;2024-03-07T09:35:03;6.80;1.00
19000;DHT22;9633;50.980;13.850;2024-03-07T09:36:39;6.80;1.00
19000;DHT22;9633;50.980;13.850;2024-03-07T09:38:12;6.70;1.00
19000;DHT22;9633;50.980;13.850;2024-03-07T09:39:48;6.70;1.00
19000;DHT22;9633;50.980;13.850;2024-03-07T09:41:21;6.60;1.00
19000;DHT22;9633;50.980;13.850;2024-03-07T09:42:57;6.60;1.00
19000;DHT22;9633;50.980;13.850;2024-03-07T09:44:33;6.70;1.00
19000;DHT22;9633;50.980;13.850;2024-03-07T09:46:07;6.90;1.00
19000;DHT22;9633;50.980;13.850;2024-03-07T09:47:44;7.10;1.00
19000;DHT22;9633;50.980;13.850;2024-03-07T09:49:18;7.20;1.00
19000;DHT22;9633;50.980;13.850;2024-03-07T09:50:52;7.20;1.00
19000;DHT22;9633;50.980;13.850;2024-03-07T09:52:27;7.30;1.00
19000;DHT22;9633;50.980;13.850;2024-03-07T09:54:01;7.40;1.00
19000;DHT22;9633;50.980;13.850;2024-03-07T09:55:35;7.40;1.00
19000;DHT22;9633;50.980;13.850;2024-03-07T09:57:09;7.40;1.00
19000;DHT22;9633;50.980;13.850;2024-03-07T09:58:43;7.40;1.00
19000;DHT22;9633;50.980;13.850;2024-03-07T10:00:19;7.40;1.00
19000;DHT22;9633;50.980;13.850;2024-03-07T10:01:57;7.30;1.00
19000;DHT22;9633;50.980;13.850;2024-03-07T10:03:34;7.50;1.00
19000;DHT22;9633;50.980;13.850;2024-03-07T10:05:10;7.60;1.00